Time;durP1;ratioP1;P1;durP2;ratioP2;P2;SDS_P1;SDS_P2;PMS_P1;PMS_P2;Temp;Humidity;BMP_temperature;BMP_pressure;BME280_temperature;BME280_humidity;BME280_pressure;Samples;Min_cycle;Max_cycle;Signal;HPM_P1;HPM_P2
2023/08/04 00:00:40;;;;;;;4.20;1.90;;;;;;;;;;5012818;28;20045;-78
2023/08/04 00:03:06;;;;;;;4.03;1.52;;;;;;;;;;5010843;28;20052;-77
2023/08/04 00:05:33;;;;;;;3.38;1.35;;;;;;;;;;5012731;28;20088;-79
2023/08/04 00:08:00;;;;;;;1.67;1.10;;;;;;;;;;5012338;28;20096;-78
2023/08/04 00:10:26;;;;;;;4.00;1.58;;;;;;;;;;5012649;28;20056;-78
2023/08/04 00:12:53;;;;;;;5.15;1.40;;;;;;;;;;5014997;28;20137;-78
2023/08/04 00:15:19;;;;;;;3.47;1.60;;;;;;;;;;5014355;28;20080;-78
2023/08/04 00:17:47;;;;;;;3.33;1.52;;;;;;;;;;5014711;28;20045;-80
2023/08/04 00:20:14;;;;;;;4.03;1.80;;;;;;;;;;5014980;28;20042;-78
2023/08/04 00:22:40;;;;;;;3.88;1.83;;;;;;;;;;5014603;28;20187;-77
2023/08/04 00:25:08;;;;;;;4.10;1.90;;;;;;;;;;5013456;28;20057;-77
2023/08/04 00:27:34;;;;;;;4.43;2.22;;;;;;;;;;5013861;28;20245;-78
2023/08/04 00:30:01;;;;;;;4.43;1.80;;;;;;;;;;5013109;28;20046;-77
2023/08/04 00:32:28;;;;;;;4.35;1.65;;;;;;;;;;5013713;28;20398;-78
2023/08/04 00:34:56;;;;;;;3.83;1.40;;;;;;;;;;5012853;28;20172;-77
2023/08/04 00:37:23;;;;;;;3.17;1.52;;;;;;;;;;5014393;28;20062;-77
2023/08/04 00:39:50;;;;;;;3.10;1.55;;;;;;;;;;5015937;28;20374;-78
2023/08/04 00:42:18;;;;;;;3.15;1.58;;;;;;;;;;5016496;28;20057;-80
2023/08/04 00:44:44;;;;;;;4.00;1.70;;;;;;;;;;5014951;28;20520;-77
2023/08/04 00:47:11;;;;;;;3.35;1.58;;;;;;;;;;5014766;28;20545;-78
2023/08/04 00:49:38;;;;;;;3.33;1.92;;;;;;;;;;5012801;28;20061;-76
2023/08/04 00:52:09;;;;;;;3.58;1.50;;;;;;;;;;5011039;28;20073;-77
2023/08/04 00:54:37;;;;;;;3.53;1.48;;;;;;;;;;5010194;28;20216;-76
2023/08/04 00:57:05;;;;;;;4.35;1.98;;;;;;;;;;5013047;28;20058;-76
2023/08/04 00:59:32;;;;;;;3.90;1.70;;;;;;;;;;5011388;28;20072;-77
2023/08/04 01:01:58;;;;;;;2.97;1.30;;;;;;;;;;5006193;28;20516;-77
2023/08/04 01:04:25;;;;;;;3.90;1.90;;;;;;;;;;5010467;28;20526;-77
2023/08/04 01:07:04;;;;;;;3.90;1.52;;;;;;;;;;5011864;28;20141;-77
2023/08/04 01:09:37;;;;;;;3.15;1.38;;;;;;;;;;5011783;28;20042;-77
2023/08/04 01:12:11;;;;;;;4.05;1.60;;;;;;;;;;5011239;28;20046;-77
2023/08/04 01:14:39;;;;;;;5.38;1.75;;;;;;;;;;5011792;28;20125;-77
2023/08/04 01:17:27;;;;;;;4.20;1.80;;;;;;;;;;5014509;28;20124;-79
2023/08/04 01:19:55;;;;;;;4.85;1.60;;;;;;;;;;5014210;28;20204;-77
2023/08/04 01:22:23;;;;;;;3.70;1.55;;;;;;;;;;5013238;28;20049;-78
2023/08/04 01:24:51;;;;;;;4.68;1.58;;;;;;;;;;5013811;28;20540;-77
2023/08/04 01:27:22;;;;;;;3.97;1.67;;;;;;;;;;5013030;28;20100;-78
2023/08/04 01:29:50;;;;;;;3.05;1.50;;;;;;;;;;5013969;28;20054;-78
2023/08/04 01:32:16;;;;;;;4.47;1.42;;;;;;;;;;5014753;28;20038;-78
2023/08/04 01:34:47;;;;;;;4.10;1.63;;;;;;;;;;5014938;28;20048;-79
2023/08/04 01:37:14;;;;;;;3.25;1.40;;;;;;;;;;5014290;28;20096;-78
2023/08/04 01:39:42;;;;;;;3.53;1.60;;;;;;;;;;5013509;28;20133;-77
2023/08/04 01:42:09;;;;;;;2.60;1.58;;;;;;;;;;5014473;28;20050;-77
2023/08/04 01:44:35;;;;;;;4.47;1.70;;;;;;;;;;5013883;28;20211;-78
2023/08/04 01:47:03;;;;;;;3.55;2.03;;;;;;;;;;5013748;28;20042;-78
2023/08/04 01:49:29;;;;;;;4.53;1.80;;;;;;;;;;5014249;28;20045;-77
2023/08/04 01:51:56;;;;;;;4.57;2.17;;;;;;;;;;5013498;28;20050;-78
2023/08/04 01:54:23;;;;;;;5.00;1.92;;;;;;;;;;5014654;28;20137;-79
2023/08/04 01:56:51;;;;;;;3.35;1.95;;;;;;;;;;5013916;28;20081;-79
2023/08/04 01:59:18;;;;;;;3.75;1.85;;;;;;;;;;5014987;28;20044;-78
2023/08/04 02:01:44;;;;;;;5.55;1.88;;;;;;;;;;5013760;28;20056;-77
2023/08/04 02:04:11;;;;;;;5.13;1.90;;;;;;;;;;5012452;28;20050;-78
2023/08/04 02:06:37;;;;;;;3.50;1.65;;;;;;;;;;5012847;28;20046;-79
2023/08/04 02:09:04;;;;;;;3.08;1.55;;;;;;;;;;5014166;28;20401;-78
2023/08/04 02:11:31;;;;;;;3.95;1.92;;;;;;;;;;5013501;28;20050;-77
2023/08/04 02:14:00;;;;;;;3.63;1.67;;;;;;;;;;5014002;28;20054;-79
2023/08/04 02:16:27;;;;;;;4.53;1.90;;;;;;;;;;5013983;28;20045;-79
2023/08/04 02:19:09;;;;;;;3.42;1.67;;;;;;;;;;5014544;28;20129;-79
2023/08/04 02:21:36;;;;;;;3.72;1.70;;;;;;;;;;5009918;28;20057;-78
2023/08/04 02:24:03;;;;;;;3.42;1.50;;;;;;;;;;5012668;28;20153;-79
2023/08/04 02:26:30;;;;;;;2.83;1.67;;;;;;;;;;5013707;28;20085;-78
2023/08/04 02:28:58;;;;;;;3.80;1.65;;;;;;;;;;5013326;28;20068;-78
2023/08/04 02:31:28;;;;;;;2.67;1.60;;;;;;;;;;5013246;28;20084;-78
2023/08/04 02:33:55;;;;;;;3.90;1.90;;;;;;;;;;5011595;28;20141;-79
2023/08/04 02:36:22;;;;;;;5.50;1.85;;;;;;;;;;5013311;28;20038;-78
2023/08/04 02:38:48;;;;;;;4.25;2.15;;;;;;;;;;5008838;28;20038;-78
2023/08/04 02:41:15;;;;;;;3.80;1.73;;;;;;;;;;5012318;28;20592;-78
2023/08/04 02:43:42;;;;;;;5.13;2.33;;;;;;;;;;5012505;28;20109;-78
2023/08/04 02:46:11;;;;;;;3.28;1.83;;;;;;;;;;5012859;28;20428;-78
2023/08/04 02:48:38;;;;;;;4.05;1.42;;;;;;;;;;5014095;28;20050;-78
2023/08/04 02:51:07;;;;;;;3.35;1.55;;;;;;;;;;5013272;28;20427;-78
2023/08/04 02:53:35;;;;;;;3.20;1.42;;;;;;;;;;5013528;28;20057;-79
2023/08/04 02:56:09;;;;;;;2.55;1.20;;;;;;;;;;5012131;28;20066;-78
2023/08/04 02:58:35;;;;;;;3.13;1.30;;;;;;;;;;5014156;28;20496;-77
2023/08/04 03:01:02;;;;;;;3.53;1.30;;;;;;;;;;5013930;28;20132;-79
2023/08/04 03:03:30;;;;;;;3.47;1.67;;;;;;;;;;5012135;28;20127;-78
2023/08/04 03:05:57;;;;;;;3.65;1.70;;;;;;;;;;5013407;28;20524;-79
2023/08/04 03:08:24;;;;;;;3.92;1.95;;;;;;;;;;5013463;28;20054;-79
2023/08/04 03:10:51;;;;;;;3.45;1.58;;;;;;;;;;5012409;28;20049;-79
2023/08/04 03:13:17;;;;;;;5.60;1.70;;;;;;;;;;5013138;28;20243;-78
2023/08/04 03:15:44;;;;;;;4.07;1.85;;;;;;;;;;5013667;28;20101;-78
2023/08/04 03:18:12;;;;;;;3.47;1.73;;;;;;;;;;5012583;28;20053;-80
2023/08/04 03:20:41;;;;;;;3.63;1.85;;;;;;;;;;5013378;28;20049;-79
2023/08/04 03:23:08;;;;;;;6.47;2.13;;;;;;;;;;5012602;28;20046;-79
2023/08/04 03:25:34;;;;;;;4.15;2.00;;;;;;;;;;5012835;28;20513;-78
2023/08/04 03:28:01;;;;;;;4.20;1.73;;;;;;;;;;5012814;28;20049;-78
2023/08/04 03:30:28;;;;;;;4.40;1.65;;;;;;;;;;5012588;28;20056;-78
2023/08/04 03:32:54;;;;;;;2.33;1.30;;;;;;;;;;5012606;28;20065;-78
2023/08/04 03:35:21;;;;;;;3.30;1.70;;;;;;;;;;5012733;28;20042;-79
2023/08/04 03:37:49;;;;;;;4.53;1.85;;;;;;;;;;5012267;28;20049;-78
2023/08/04 03:40:15;;;;;;;3.10;1.63;;;;;;;;;;5012888;28;20129;-78
2023/08/04 03:42:43;;;;;;;4.10;1.75;;;;;;;;;;5011831;28;20057;-77
2023/08/04 03:45:10;;;;;;;3.40;1.73;;;;;;;;;;5014302;28;20515;-78
2023/08/04 03:47:37;;;;;;;3.42;1.60;;;;;;;;;;5015587;28;20049;-77
2023/08/04 03:50:04;;;;;;;3.50;1.90;;;;;;;;;;5019479;28;20054;-77
2023/08/04 03:52:31;;;;;;;3.90;1.77;;;;;;;;;;5020927;28;20077;-78
2023/08/04 03:54:59;;;;;;;3.00;1.73;;;;;;;;;;5021393;28;20048;-78
2023/08/04 03:57:25;;;;;;;3.75;1.80;;;;;;;;;;5019116;28;20052;-78
2023/08/04 03:59:53;;;;;;;3.65;1.60;;;;;;;;;;5015368;28;20137;-78
2023/08/04 04:02:20;;;;;;;3.97;1.88;;;;;;;;;;5015399;28;20049;-78
2023/08/04 04:04:48;;;;;;;3.28;1.60;;;;;;;;;;5016822;28;20058;-78
2023/08/04 04:07:14;;;;;;;3.78;1.48;;;;;;;;;;5015214;28;20077;-77
2023/08/04 04:09:41;;;;;;;3.85;1.58;;;;;;;;;;5015768;28;20073;-77
2023/08/04 04:12:09;;;;;;;2.35;1.20;;;;;;;;;;5016080;28;20054;-78
2023/08/04 04:14:36;;;;;;;3.28;1.00;;;;;;;;;;5017588;28;20057;-78
2023/08/04 04:17:03;;;;;;;2.60;1.00;;;;;;;;;;5014908;28;20054;-78
2023/08/04 04:19:29;;;;;;;3.20;1.33;;;;;;;;;;5014882;28;20076;-78
2023/08/04 04:21:56;;;;;;;2.60;0.98;;;;;;;;;;5014656;28;20129;-79
2023/08/04 04:24:23;;;;;;;2.17;0.80;;;;;;;;;;5014303;28;20056;-79
2023/08/04 04:26:49;;;;;;;2.72;1.20;;;;;;;;;;5013807;28;20046;-78
2023/08/04 04:29:17;;;;;;;3.95;1.23;;;;;;;;;;5014618;28;20050;-78
2023/08/04 04:31:44;;;;;;;3.60;0.93;;;;;;;;;;5014271;28;20046;-79
2023/08/04 04:34:10;;;;;;;2.05;0.70;;;;;;;;;;5015173;28;20137;-79
2023/08/04 04:36:37;;;;;;;2.75;0.95;;;;;;;;;;5015110;28;20049;-80
2023/08/04 04:39:03;;;;;;;3.50;1.00;;;;;;;;;;5013417;28;20050;-79
2023/08/04 04:41:30;;;;;;;1.48;0.90;;;;;;;;;;5013490;28;20104;-77
2023/08/04 04:43:57;;;;;;;3.13;1.08;;;;;;;;;;5010606;28;20114;-79
2023/08/04 04:46:25;;;;;;;3.28;0.93;;;;;;;;;;5014593;28;20050;-79
2023/08/04 04:48:52;;;;;;;2.28;1.02;;;;;;;;;;5012001;28;20076;-79
2023/08/04 04:51:18;;;;;;;1.30;0.65;;;;;;;;;;5011842;28;20737;-78
2023/08/04 04:53:45;;;;;;;2.60;0.85;;;;;;;;;;5010306;28;20500;-79
2023/08/04 04:56:12;;;;;;;2.35;0.93;;;;;;;;;;5013602;28;20159;-79
2023/08/04 04:58:38;;;;;;;2.90;0.90;;;;;;;;;;5013725;28;20656;-79
2023/08/04 05:01:06;;;;;;;2.95;1.08;;;;;;;;;;5013290;28;20124;-78
2023/08/04 05:03:34;;;;;;;4.50;1.23;;;;;;;;;;5011525;28;20056;-78
2023/08/04 05:06:01;;;;;;;3.53;1.02;;;;;;;;;;5011148;28;20049;-78
2023/08/04 05:08:28;;;;;;;3.33;1.48;;;;;;;;;;5010537;28;20194;-79
2023/08/04 05:10:54;;;;;;;3.08;0.85;;;;;;;;;;5014744;28;20113;-79
2023/08/04 05:13:21;;;;;;;2.00;1.23;;;;;;;;;;5014702;28;20054;-79
2023/08/04 05:15:48;;;;;;;2.13;1.10;;;;;;;;;;5015416;28;20336;-78
2023/08/04 05:18:15;;;;;;;2.80;0.93;;;;;;;;;;5014179;28;20129;-79
2023/08/04 05:20:46;;;;;;;2.50;1.10;;;;;;;;;;5014430;28;20157;-78
2023/08/04 05:23:12;;;;;;;2.53;0.90;;;;;;;;;;5012544;28;20042;-78
2023/08/04 05:25:39;;;;;;;4.28;2.65;;;;;;;;;;5013080;28;20141;-78
2023/08/04 05:28:23;;;;;;;2.35;1.13;;;;;;;;;;5013371;28;20049;-78
2023/08/04 05:30:54;;;;;;;3.03;1.00;;;;;;;;;;5010796;28;20089;-79
2023/08/04 05:33:21;;;;;;;1.58;0.80;;;;;;;;;;5013960;28;20479;-78
2023/08/04 05:35:49;;;;;;;4.20;0.90;;;;;;;;;;5009716;28;20140;-79
2023/08/04 05:38:16;;;;;;;4.03;1.02;;;;;;;;;;5010391;28;20061;-78
2023/08/04 05:40:44;;;;;;;3.40;1.00;;;;;;;;;;5010026;28;20334;-79
2023/08/04 05:43:11;;;;;;;1.83;0.73;;;;;;;;;;5010961;28;20049;-77
2023/08/04 05:45:37;;;;;;;2.83;0.93;;;;;;;;;;5012096;28;20054;-78
2023/08/04 05:48:05;;;;;;;3.25;0.70;;;;;;;;;;5011073;28;20056;-77
2023/08/04 05:50:31;;;;;;;2.30;0.85;;;;;;;;;;5013391;28;20114;-77
2023/08/04 05:52:59;;;;;;;2.42;1.23;;;;;;;;;;5012354;28;20056;-78
2023/08/04 05:55:26;;;;;;;3.10;1.23;;;;;;;;;;5013242;28;20046;-78
2023/08/04 05:57:52;;;;;;;2.75;1.30;;;;;;;;;;5012330;28;20049;-78
2023/08/04 06:00:20;;;;;;;3.40;1.40;;;;;;;;;;5016609;28;20053;-79
2023/08/04 06:02:46;;;;;;;4.25;1.75;;;;;;;;;;5015504;28;20467;-78
2023/08/04 06:05:13;;;;;;;2.25;1.10;;;;;;;;;;5012195;28;20048;-78
2023/08/04 06:07:40;;;;;;;2.55;0.98;;;;;;;;;;5012541;28;20053;-78
2023/08/04 06:10:09;;;;;;;3.28;1.13;;;;;;;;;;5014920;28;20062;-78
2023/08/04 06:12:35;;;;;;;3.97;1.13;;;;;;;;;;5016217;28;20046;-76
2023/08/04 06:15:02;;;;;;;2.58;0.80;;;;;;;;;;5014501;28;20050;-79
2023/08/04 06:17:29;;;;;;;2.53;0.90;;;;;;;;;;5014221;28;20270;-78
2023/08/04 06:19:55;;;;;;;2.30;0.90;;;;;;;;;;5014119;28;20052;-78
2023/08/04 06:22:22;;;;;;;2.60;0.90;;;;;;;;;;5014285;28;20137;-77
2023/08/04 06:24:48;;;;;;;2.92;1.02;;;;;;;;;;5009100;28;20437;-80
2023/08/04 06:27:16;;;;;;;2.65;0.90;;;;;;;;;;5008876;28;20069;-80
2023/08/04 06:29:42;;;;;;;2.00;0.80;;;;;;;;;;5010277;28;20057;-78
2023/08/04 06:32:09;;;;;;;4.00;0.80;;;;;;;;;;5014371;28;20046;-78
2023/08/04 06:34:35;;;;;;;3.00;0.93;;;;;;;;;;5017928;28;20053;-78
2023/08/04 06:37:02;;;;;;;2.25;1.13;;;;;;;;;;5012897;28;20050;-78
2023/08/04 06:39:29;;;;;;;2.72;1.15;;;;;;;;;;5013955;28;20088;-78
2023/08/04 06:41:56;;;;;;;3.30;1.00;;;;;;;;;;5020179;28;20049;-79
2023/08/04 06:44:28;;;;;;;3.40;1.42;;;;;;;;;;5020938;28;20073;-78
2023/08/04 06:46:54;;;;;;;3.10;1.55;;;;;;;;;;5023350;28;20074;-77
2023/08/04 06:49:21;;;;;;;3.53;1.35;;;;;;;;;;5009657;28;20076;-80
2023/08/04 06:51:49;;;;;;;2.42;0.93;;;;;;;;;;5044266;22;20069;-81
2023/08/04 06:54:16;;;;;;;2.58;1.00;;;;;;;;;;5033891;28;20104;-81
2023/08/04 06:56:42;;;;;;;3.35;1.50;;;;;;;;;;5031904;28;20508;-79
2023/08/04 06:59:09;;;;;;;3.72;1.30;;;;;;;;;;5028475;28;20478;-79
2023/08/04 07:01:37;;;;;;;2.78;1.17;;;;;;;;;;5030914;28;20057;-82
2023/08/04 07:04:03;;;;;;;2.40;1.00;;;;;;;;;;5027779;28;20060;-80
2023/08/04 07:06:30;;;;;;;3.22;1.13;;;;;;;;;;5028127;28;20049;-79
2023/08/04 07:08:57;;;;;;;4.47;1.35;;;;;;;;;;5030933;28;20125;-79
2023/08/04 07:11:24;;;;;;;2.78;1.20;;;;;;;;;;5027244;28;20065;-82
2023/08/04 07:13:50;;;;;;;3.90;1.30;;;;;;;;;;5034939;28;20379;-82
2023/08/04 07:16:17;;;;;;;2.83;1.10;;;;;;;;;;5028410;28;20642;-82
2023/08/04 07:18:45;;;;;;;3.20;1.23;;;;;;;;;;5034157;28;20050;-81
2023/08/04 07:21:13;;;;;;;3.33;1.40;;;;;;;;;;5026390;28;20051;-82
2023/08/04 07:23:40;;;;;;;2.85;1.25;;;;;;;;;;5029350;28;20052;-82
2023/08/04 07:26:08;;;;;;;3.20;1.20;;;;;;;;;;5034134;28;20133;-82
2023/08/04 07:28:35;;;;;;;2.28;0.93;;;;;;;;;;5034989;28;20057;-82
2023/08/04 07:31:03;;;;;;;2.40;1.17;;;;;;;;;;5031659;28;20500;-83
2023/08/04 07:33:30;;;;;;;2.90;1.10;;;;;;;;;;5030876;28;20080;-83
2023/08/04 07:35:58;;;;;;;3.13;1.30;;;;;;;;;;5029427;28;20050;-83
2023/08/04 07:38:27;;;;;;;1.90;1.10;;;;;;;;;;5031056;28;20053;-82
2023/08/04 07:40:53;;;;;;;2.80;1.42;;;;;;;;;;5030782;28;20049;-82
2023/08/04 07:43:20;;;;;;;5.63;1.30;;;;;;;;;;5030436;28;20049;-82
2023/08/04 07:45:46;;;;;;;2.97;1.60;;;;;;;;;;5029610;28;20137;-83
2023/08/04 07:48:13;;;;;;;3.65;1.48;;;;;;;;;;5031202;28;20077;-81
2023/08/04 07:50:41;;;;;;;3.78;1.70;;;;;;;;;;5033426;28;20042;-83
2023/08/04 07:53:09;;;;;;;3.55;1.90;;;;;;;;;;5027245;28;20060;-83
2023/08/04 07:55:36;;;;;;;3.95;1.98;;;;;;;;;;5030930;28;20137;-82
2023/08/04 07:58:03;;;;;;;4.10;1.77;;;;;;;;;;5025923;28;20486;-80
2023/08/04 08:00:29;;;;;;;3.65;1.60;;;;;;;;;;5034412;28;20073;-82
2023/08/04 08:02:56;;;;;;;4.38;1.63;;;;;;;;;;5030150;28;20136;-79
2023/08/04 08:05:23;;;;;;;4.40;1.77;;;;;;;;;;5022556;28;20047;-83
2023/08/04 08:07:49;;;;;;;3.58;1.52;;;;;;;;;;5028520;28;20515;-82
2023/08/04 08:10:18;;;;;;;3.38;1.80;;;;;;;;;;5025949;28;20045;-82
2023/08/04 08:12:44;;;;;;;4.55;1.20;;;;;;;;;;5034403;28;20045;-81
2023/08/04 08:15:12;;;;;;;4.07;1.33;;;;;;;;;;5028396;28;20080;-81
2023/08/04 08:17:39;;;;;;;4.18;1.95;;;;;;;;;;5029181;28;20041;-80
2023/08/04 08:20:07;;;;;;;2.58;1.10;;;;;;;;;;5040071;28;20049;-82
2023/08/04 08:22:33;;;;;;;4.25;1.30;;;;;;;;;;5034374;28;20073;-83
2023/08/04 08:25:00;;;;;;;3.35;1.00;;;;;;;;;;5029027;28;20137;-82
2023/08/04 08:27:28;;;;;;;5.00;1.30;;;;;;;;;;5027381;28;20077;-82
2023/08/04 08:29:56;;;;;;;2.63;1.10;;;;;;;;;;5042429;28;20066;-83
2023/08/04 08:32:22;;;;;;;2.42;1.27;;;;;;;;;;5031285;28;20468;-83
2023/08/04 08:34:50;;;;;;;4.38;1.58;;;;;;;;;;5030762;28;20047;-82
2023/08/04 08:37:17;;;;;;;3.80;1.58;;;;;;;;;;5033815;28;20463;-83
2023/08/04 08:39:43;;;;;;;3.75;1.10;;;;;;;;;;5035286;28;20041;-82
2023/08/04 08:42:10;;;;;;;2.97;1.25;;;;;;;;;;5032321;28;20122;-82
2023/08/04 08:44:38;;;;;;;1.92;0.90;;;;;;;;;;5033533;28;20072;-83
2023/08/04 08:47:05;;;;;;;3.30;1.00;;;;;;;;;;5033622;28;20053;-83
2023/08/04 08:49:36;;;;;;;3.67;0.90;;;;;;;;;;5036425;28;20140;-83
2023/08/04 08:52:07;;;;;;;2.13;0.93;;;;;;;;;;5034118;28;20128;-81
2023/08/04 08:54:35;;;;;;;3.30;1.10;;;;;;;;;;5029798;28;20088;-83
2023/08/04 08:57:02;;;;;;;3.47;1.23;;;;;;;;;;5031791;28;20041;-83
2023/08/04 08:59:29;;;;;;;3.15;1.20;;;;;;;;;;5036385;28;20057;-83
2023/08/04 09:01:58;;;;;;;3.60;1.48;;;;;;;;;;5038768;28;20053;-82
2023/08/04 09:04:25;;;;;;;5.38;1.25;;;;;;;;;;5045985;28;20065;-82
2023/08/04 09:06:52;;;;;;;3.17;1.20;;;;;;;;;;5035906;28;20077;-82
2023/08/04 09:09:18;;;;;;;2.03;0.90;;;;;;;;;;5029684;28;20053;-83
2023/08/04 09:11:45;;;;;;;2.38;1.00;;;;;;;;;;5029832;28;20579;-82
2023/08/04 09:14:11;;;;;;;3.75;1.10;;;;;;;;;;5042091;28;20053;-82
2023/08/04 09:16:39;;;;;;;2.10;1.00;;;;;;;;;;5043381;28;20057;-82
2023/08/04 09:19:08;;;;;;;3.53;1.40;;;;;;;;;;5046752;28;20115;-81
2023/08/04 09:21:36;;;;;;;3.65;1.10;;;;;;;;;;5046406;28;20077;-82
2023/08/04 09:24:04;;;;;;;3.25;1.08;;;;;;;;;;5037312;28;20149;-82
2023/08/04 09:26:42;;;;;;;2.38;1.00;;;;;;;;;;5026871;28;20498;-82
2023/08/04 09:29:08;;;;;;;2.25;0.80;;;;;;;;;;5028961;28;20064;-81
2023/08/04 09:31:36;;;;;;;2.03;0.90;;;;;;;;;;5031852;28;20042;-82
2023/08/04 09:34:06;;;;;;;3.60;1.55;;;;;;;;;;5038286;28;20045;-82
2023/08/04 09:36:39;;;;;;;2.78;0.90;;;;;;;;;;5035706;28;20071;-81
2023/08/04 09:39:06;;;;;;;1.80;0.75;;;;;;;;;;5034725;28;20102;-83
2023/08/04 09:41:34;;;;;;;2.75;1.17;;;;;;;;;;5033066;28;20049;-83
2023/08/04 09:44:05;;;;;;;3.72;1.00;;;;;;;;;;5031464;28;20049;-82
2023/08/04 09:46:32;;;;;;;2.92;1.20;;;;;;;;;;5031432;28;20423;-83
2023/08/04 09:48:59;;;;;;;3.15;1.30;;;;;;;;;;5031665;28;20407;-81
2023/08/04 09:51:26;;;;;;;4.20;1.80;;;;;;;;;;5024786;28;20065;-83
2023/08/04 09:53:55;;;;;;;3.55;1.10;;;;;;;;;;5037026;28;20103;-81
2023/08/04 09:56:26;;;;;;;1.45;0.73;;;;;;;;;;5033470;28;20050;-80
2023/08/04 09:58:52;;;;;;;2.35;1.10;;;;;;;;;;5033952;28;20053;-80
2023/08/04 10:01:19;;;;;;;2.15;0.90;;;;;;;;;;5035079;28;20045;-80
2023/08/04 10:03:51;;;;;;;2.03;0.80;;;;;;;;;;5024025;28;20096;-80
2023/08/04 10:06:18;;;;;;;1.58;0.75;;;;;;;;;;5041492;28;20042;-79
2023/08/04 10:08:45;;;;;;;2.90;0.73;;;;;;;;;;5036555;28;20046;-80
2023/08/04 10:11:13;;;;;;;1.20;0.65;;;;;;;;;;5036192;28;20107;-78
2023/08/04 10:13:42;;;;;;;2.40;0.98;;;;;;;;;;5035931;28;20050;-79
2023/08/04 10:16:11;;;;;;;1.95;0.80;;;;;;;;;;5028046;28;20042;-81
2023/08/04 10:18:51;;;;;;;3.03;0.90;;;;;;;;;;5029501;28;20124;-80
2023/08/04 10:21:21;;;;;;;2.08;0.70;;;;;;;;;;5033878;28;20048;-80
2023/08/04 10:23:48;;;;;;;1.40;0.70;;;;;;;;;;5033909;28;20049;-79
2023/08/04 10:26:16;;;;;;;2.67;1.13;;;;;;;;;;5036438;28;20057;-81
2023/08/04 10:29:00;;;;;;;2.42;0.77;;;;;;;;;;5034541;28;20049;-80
2023/08/04 10:31:44;;;;;;;2.38;0.80;;;;;;;;;;5033226;28;20459;-80
2023/08/04 10:34:24;;;;;;;1.00;0.57;;;;;;;;;;5035057;28;20041;-80
2023/08/04 10:36:59;;;;;;;2.08;0.90;;;;;;;;;;5038061;28;20064;-80
2023/08/04 10:39:26;;;;;;;2.05;0.88;;;;;;;;;;5038012;28;20053;-82
2023/08/04 10:41:55;;;;;;;2.92;1.00;;;;;;;;;;5037127;28;20053;-81
2023/08/04 10:44:24;;;;;;;2.65;1.00;;;;;;;;;;5036570;28;20114;-81
2023/08/04 10:46:52;;;;;;;1.63;0.60;;;;;;;;;;5032463;28;20095;-81
2023/08/04 10:49:21;;;;;;;3.10;0.98;;;;;;;;;;5037497;28;20072;-79
2023/08/04 10:51:49;;;;;;;2.80;0.90;;;;;;;;;;5037540;28;20046;-80
2023/08/04 10:54:19;;;;;;;1.15;0.60;;;;;;;;;;5036297;28;20452;-79
2023/08/04 10:56:46;;;;;;;1.58;0.75;;;;;;;;;;5033413;28;20064;-82
2023/08/04 10:59:14;;;;;;;2.40;0.90;;;;;;;;;;5023100;28;20046;-80
2023/08/04 11:01:41;;;;;;;3.50;0.90;;;;;;;;;;5033586;28;20053;-81
2023/08/04 11:04:07;;;;;;;2.42;0.80;;;;;;;;;;5035016;28;20124;-81
2023/08/04 11:06:34;;;;;;;2.20;0.77;;;;;;;;;;5036860;28;20106;-80
2023/08/04 11:09:00;;;;;;;1.95;0.88;;;;;;;;;;5036781;28;20523;-80
2023/08/04 11:11:27;;;;;;;3.53;1.20;;;;;;;;;;5036077;28;20041;-82
2023/08/04 11:13:56;;;;;;;1.42;0.90;;;;;;;;;;5037571;28;20075;-81
2023/08/04 11:16:25;;;;;;;1.60;0.77;;;;;;;;;;5033497;28;20060;-81
2023/08/04 11:18:53;;;;;;;1.65;0.63;;;;;;;;;;5034647;28;20037;-80
2023/08/04 11:21:19;;;;;;;2.13;0.80;;;;;;;;;;5037106;28;20048;-81
2023/08/04 11:23:46;;;;;;;3.63;1.10;;;;;;;;;;5037484;28;20118;-79
2023/08/04 11:26:12;;;;;;;1.60;0.85;;;;;;;;;;5037845;28;20132;-81
2023/08/04 11:28:39;;;;;;;2.38;0.90;;;;;;;;;;5036985;28;20054;-80
2023/08/04 11:31:06;;;;;;;2.13;0.80;;;;;;;;;;5029911;28;20474;-81
2023/08/04 11:33:34;;;;;;;1.25;0.70;;;;;;;;;;5034169;28;20092;-81
2023/08/04 11:36:03;;;;;;;1.35;0.70;;;;;;;;;;5037719;28;20064;-81
2023/08/04 11:38:29;;;;;;;1.83;0.90;;;;;;;;;;5036506;28;20045;-80
2023/08/04 11:40:58;;;;;;;2.83;0.80;;;;;;;;;;5029381;28;20050;-80
2023/08/04 11:43:25;;;;;;;2.10;0.70;;;;;;;;;;5034534;28;20041;-79
2023/08/04 11:45:52;;;;;;;2.80;0.90;;;;;;;;;;5037831;28;20109;-81
2023/08/04 11:48:19;;;;;;;1.88;0.90;;;;;;;;;;5037207;28;20424;-80
2023/08/04 11:50:49;;;;;;;4.13;1.40;;;;;;;;;;5036109;28;20046;-82
2023/08/04 11:53:16;;;;;;;1.52;0.70;;;;;;;;;;5032996;28;20057;-81
2023/08/04 11:55:57;;;;;;;2.47;1.00;;;;;;;;;;5037884;28;20037;-81
2023/08/04 11:58:34;;;;;;;2.83;0.80;;;;;;;;;;5033732;28;20046;-80
2023/08/04 12:01:00;;;;;;;1.15;0.57;;;;;;;;;;5037261;28;20085;-81
2023/08/04 12:03:41;;;;;;;2.35;0.80;;;;;;;;;;5037150;28;20496;-81
2023/08/04 12:06:14;;;;;;;1.95;0.60;;;;;;;;;;5034643;28;20049;-81
2023/08/04 12:08:48;;;;;;;1.50;0.70;;;;;;;;;;5036576;28;20163;-81
2023/08/04 12:11:14;;;;;;;2.53;0.80;;;;;;;;;;5029874;28;20099;-80
2023/08/04 12:13:41;;;;;;;2.03;0.82;;;;;;;;;;5035811;28;20048;-81
2023/08/04 12:16:09;;;;;;;1.27;0.68;;;;;;;;;;5035313;28;20099;-80
2023/08/04 12:18:35;;;;;;;2.30;1.15;;;;;;;;;;5038295;28;20072;-81
2023/08/04 12:21:03;;;;;;;2.28;0.90;;;;;;;;;;5037935;28;20049;-82
2023/08/04 12:23:30;;;;;;;1.70;0.77;;;;;;;;;;5033474;28;20045;-82
2023/08/04 12:25:57;;;;;;;2.00;0.73;;;;;;;;;;5039037;28;20050;-81
2023/08/04 12:28:24;;;;;;;2.03;0.77;;;;;;;;;;5042398;28;20053;-81
2023/08/04 12:30:51;;;;;;;1.58;0.70;;;;;;;;;;5043972;28;20555;-81
2023/08/04 12:33:18;;;;;;;1.77;0.80;;;;;;;;;;5038774;28;20050;-81
2023/08/04 12:35:44;;;;;;;2.53;0.60;;;;;;;;;;5039874;28;20407;-81
2023/08/04 12:38:12;;;;;;;2.17;0.80;;;;;;;;;;5035783;28;20037;-81
2023/08/04 12:40:40;;;;;;;1.63;0.80;;;;;;;;;;5039492;28;20103;-81
2023/08/04 12:43:07;;;;;;;2.25;0.70;;;;;;;;;;5039604;28;20045;-82
2023/08/04 12:45:34;;;;;;;1.67;0.82;;;;;;;;;;5030799;28;20520;-81
2023/08/04 12:48:00;;;;;;;3.28;1.27;;;;;;;;;;5036059;28;20136;-82
2023/08/04 12:50:27;;;;;;;2.58;0.90;;;;;;;;;;5044565;28;20068;-81
2023/08/04 12:52:54;;;;;;;1.48;0.73;;;;;;;;;;5041403;28;20063;-81
2023/08/04 12:55:21;;;;;;;1.83;0.80;;;;;;;;;;5060529;23;20048;-76
2023/08/04 12:57:49;;;;;;;2.53;0.90;;;;;;;;;;5083159;28;20048;-76
2023/08/04 13:00:16;;;;;;;2.60;0.93;;;;;;;;;;5089740;28;20118;-76
2023/08/04 13:02:43;;;;;;;1.92;0.90;;;;;;;;;;5086646;28;20493;-76
2023/08/04 13:05:10;;;;;;;3.58;1.00;;;;;;;;;;5080973;28;20123;-75
2023/08/04 13:07:36;;;;;;;2.90;1.20;;;;;;;;;;5067216;28;20060;-76
2023/08/04 13:10:03;;;;;;;2.42;1.00;;;;;;;;;;5062232;28;20051;-76
2023/08/04 13:12:29;;;;;;;1.92;0.88;;;;;;;;;;5062621;28;20046;-77
2023/08/04 13:14:57;;;;;;;1.38;0.80;;;;;;;;;;5067259;28;20515;-76
2023/08/04 13:17:24;;;;;;;2.97;1.00;;;;;;;;;;5066155;28;20044;-76
2023/08/04 13:19:50;;;;;;;2.10;0.95;;;;;;;;;;5067086;28;20206;-76
2023/08/04 13:22:18;;;;;;;2.70;1.00;;;;;;;;;;5066358;28;20430;-75
2023/08/04 13:24:44;;;;;;;2.80;1.10;;;;;;;;;;5071312;28;20044;-77
2023/08/04 13:27:11;;;;;;;3.20;1.00;;;;;;;;;;5069484;28;20128;-77
2023/08/04 13:29:38;;;;;;;1.98;0.90;;;;;;;;;;5073605;28;20045;-76
2023/08/04 13:32:06;;;;;;;2.50;1.00;;;;;;;;;;5071574;28;20052;-76
2023/08/04 13:34:33;;;;;;;2.58;1.13;;;;;;;;;;5071542;28;20120;-76
2023/08/04 13:37:00;;;;;;;2.15;1.05;;;;;;;;;;5069319;28;20128;-76
2023/08/04 13:39:26;;;;;;;1.95;1.00;;;;;;;;;;5066504;28;20116;-76
2023/08/04 13:41:52;;;;;;;2.70;1.00;;;;;;;;;;5072253;28;20040;-77
2023/08/04 13:44:19;;;;;;;3.10;1.02;;;;;;;;;;5067453;28;20047;-76
2023/08/04 13:46:46;;;;;;;2.20;1.00;;;;;;;;;;5071810;28;20055;-77
2023/08/04 13:49:14;;;;;;;3.10;1.17;;;;;;;;;;5071529;28;20533;-78
2023/08/04 13:51:40;;;;;;;2.50;1.30;;;;;;;;;;5069460;28;20459;-76
2023/08/04 13:54:07;;;;;;;2.70;1.20;;;;;;;;;;5071408;28;20056;-76
2023/08/04 13:56:34;;;;;;;3.78;1.10;;;;;;;;;;5078137;28;20699;-77
2023/08/04 13:59:01;;;;;;;2.25;1.02;;;;;;;;;;5081063;28;20051;-77
2023/08/04 14:01:29;;;;;;;2.70;1.30;;;;;;;;;;5062472;28;20040;-77
2023/08/04 14:03:56;;;;;;;2.58;1.10;;;;;;;;;;5063068;28;20495;-78
2023/08/04 14:06:23;;;;;;;2.17;1.10;;;;;;;;;;5063025;28;20044;-76
2023/08/04 14:08:50;;;;;;;2.45;1.00;;;;;;;;;;5063956;28;20058;-77
2023/08/04 14:11:17;;;;;;;2.97;0.98;;;;;;;;;;5065490;28;20044;-76
2023/08/04 14:13:45;;;;;;;3.53;1.38;;;;;;;;;;5060980;28;20049;-76
2023/08/04 14:16:13;;;;;;;2.88;1.02;;;;;;;;;;5058588;28;20044;-77
2023/08/04 14:18:39;;;;;;;3.00;1.17;;;;;;;;;;5065824;28;20037;-77
2023/08/04 14:21:06;;;;;;;3.80;1.20;;;;;;;;;;5070862;28;20051;-77
2023/08/04 14:23:34;;;;;;;4.20;1.80;;;;;;;;;;5065725;28;20476;-77
2023/08/04 14:26:02;;;;;;;1.77;1.10;;;;;;;;;;5061837;28;20070;-76
2023/08/04 14:28:28;;;;;;;3.00;1.42;;;;;;;;;;5057783;28;20052;-77
2023/08/04 14:30:55;;;;;;;1.95;1.00;;;;;;;;;;5054202;28;20048;-76
2023/08/04 14:33:22;;;;;;;3.50;1.38;;;;;;;;;;5067996;28;20105;-75
2023/08/04 14:35:49;;;;;;;2.47;0.95;;;;;;;;;;5068861;28;20307;-77
2023/08/04 14:38:16;;;;;;;3.40;1.20;;;;;;;;;;5069398;28;20044;-77
2023/08/04 14:40:43;;;;;;;2.13;0.98;;;;;;;;;;5069211;28;20060;-75
2023/08/04 14:43:10;;;;;;;2.88;1.20;;;;;;;;;;5069259;28;20040;-76
2023/08/04 14:45:37;;;;;;;2.42;1.10;;;;;;;;;;5068854;28;20075;-76